Time;durP1;ratioP1;P1;durP2;ratioP2;P2;SDS_P1;SDS_P2;PMS_P1;PMS_P2;Temp;Humidity;BMP_temperature;BMP_pressure;BME280_temperature;BME280_humidity;BME280_pressure;Samples;Min_cycle;Max_cycle;Signal;HPM_P1;HPM_P2
2023/04/06 00:01:39;;;;;;;0.70;0.70;;;0.90;99.90;;;;;;5018199;28;20031;-82
2023/04/06 00:04:06;;;;;;;0.60;0.60;;;0.90;99.90;;;;;;5015779;28;20037;-82
2023/04/06 00:06:32;;;;;;;0.60;0.60;;;0.90;99.90;;;;;;5036154;28;20037;-83
2023/04/06 00:08:58;;;;;;;0.75;0.75;;;0.80;99.90;;;;;;5026493;28;20068;-82
2023/04/06 00:11:24;;;;;;;;;;;0.70;99.90;;;;;;5015822;28;20168;-81
2023/04/06 00:13:50;;;;;;;0.70;0.70;;;0.70;99.90;;;;;;5000515;28;20243;-81
2023/04/06 00:16:16;;;;;;;0.60;0.60;;;0.70;99.90;;;;;;5014849;28;20057;-81
2023/04/06 00:18:42;;;;;;;0.60;0.60;;;0.60;99.90;;;;;;5015921;28;20049;-81
2023/04/06 00:21:07;;;;;;;0.73;0.73;;;0.80;99.90;;;;;;5010595;28;20424;-82
2023/04/06 00:23:33;;;;;;;0.80;0.80;;;0.50;99.90;;;;;;4982271;28;20049;-82
2023/04/06 00:25:59;;;;;;;0.80;0.80;;;0.40;99.90;;;;;;5015655;28;20071;-82
2023/04/06 00:28:26;;;;;;;0.68;0.68;;;0.40;99.90;;;;;;5022162;28;20041;-82
2023/04/06 00:30:55;;;;;;;0.70;0.70;;;0.40;99.90;;;;;;5014704;28;20125;-83
2023/04/06 00:33:21;;;;;;;0.70;0.70;;;0.40;99.90;;;;;;5014337;28;20155;-81
2023/04/06 00:35:50;;;;;;;0.70;0.70;;;0.30;99.90;;;;;;5029595;28;20103;-81
2023/04/06 00:38:16;;;;;;;0.90;0.90;;;0.20;99.90;;;;;;5030834;28;20041;-80
2023/04/06 00:40:44;;;;;;;0.85;0.85;;;0.10;99.90;;;;;;5015024;28;20041;-80
2023/04/06 00:43:11;;;;;;;0.80;0.80;;;0.10;99.90;;;;;;5031945;28;20078;-80
2023/04/06 00:45:39;;;;;;;0.68;0.68;;;0.50;99.90;;;;;;4998290;28;20045;-82
2023/04/06 00:48:05;;;;;;;0.70;0.70;;;0.90;99.90;;;;;;5013627;28;20045;-81
2023/04/06 00:50:31;;;;;;;0.80;0.80;;;0.00;99.90;;;;;;5014751;28;20041;-82
2023/04/06 00:52:58;;;;;;;0.80;0.80;;;0.00;99.90;;;;;;5030761;28;20038;-82
2023/04/06 00:55:23;;;;;;;0.85;0.85;;;-0.10;99.90;;;;;;5034936;28;20056;-81
2023/04/06 00:57:50;;;;;;;0.80;0.80;;;-0.10;99.90;;;;;;5028221;28;20403;-80
2023/04/06 01:00:16;;;;;;;0.80;0.80;;;0.20;99.90;;;;;;5039298;28;20045;-82
2023/04/06 01:02:42;;;;;;;;;;;-0.20;99.90;;;;;;5000211;28;20045;-81
2023/04/06 01:05:08;;;;;;;0.80;0.80;;;-0.10;99.90;;;;;;5018828;28;20095;-82
2023/04/06 01:07:33;;;;;;;0.70;0.70;;;-0.20;99.90;;;;;;5013757;28;20402;-82
2023/04/06 01:09:59;;;;;;;1.00;1.00;;;-0.30;99.90;;;;;;5014999;28;20083;-80
2023/04/06 01:12:25;;;;;;;1.02;1.00;;;-0.30;99.90;;;;;;5013161;28;20054;-81
2023/04/06 01:14:51;;;;;;;0.77;0.77;;;-0.30;99.90;;;;;;5014272;28;20085;-81
2023/04/06 01:17:16;;;;;;;1.05;1.05;;;-0.30;99.90;;;;;;5019772;28;20077;-81
2023/04/06 01:19:42;;;;;;;0.70;0.70;;;0.50;99.90;;;;;;5016843;28;20041;-83
2023/04/06 01:22:08;;;;;;;0.70;0.70;;;-0.40;99.90;;;;;;5019078;28;20057;-82
2023/04/06 01:24:34;;;;;;;0.70;0.70;;;-0.40;99.90;;;;;;5014442;28;20060;-80
2023/04/06 01:27:02;;;;;;;0.60;0.60;;;-0.40;99.90;;;;;;5032466;28;20445;-82
2023/04/06 01:29:28;;;;;;;0.77;0.77;;;-0.50;99.90;;;;;;5031047;28;20045;-80
2023/04/06 01:31:54;;;;;;;0.80;0.80;;;-0.50;99.90;;;;;;5018447;28;20045;-80
2023/04/06 01:34:19;;;;;;;0.70;0.70;;;-0.50;99.90;;;;;;5014990;28;20096;-81
2023/04/06 01:36:45;;;;;;;;;;;-0.50;99.90;;;;;;5016651;28;20056;-81
2023/04/06 01:39:11;;;;;;;0.80;0.80;;;-0.60;99.90;;;;;;5013405;28;19921;-82
2023/04/06 01:41:36;;;;;;;;;;;-0.60;99.90;;;;;;5014824;28;20033;-81
2023/04/06 01:44:02;;;;;;;0.75;0.75;;;-0.60;99.90;;;;;;5029923;28;19917;-80
2023/04/06 01:46:28;;;;;;;;;;;-0.70;99.90;;;;;;5014349;28;20103;-81
2023/04/06 01:48:54;;;;;;;0.80;0.80;;;-0.70;99.90;;;;;;5013454;28;19920;-81
2023/04/06 01:51:20;;;;;;;;;;;-0.70;99.90;;;;;;5014577;28;20080;-82
2023/04/06 01:53:45;;;;;;;0.90;0.90;;;-0.70;99.90;;;;;;5013448;28;19929;-81
2023/04/06 01:56:11;;;;;;;0.90;0.90;;;-0.70;99.90;;;;;;5012969;28;20041;-81
2023/04/06 01:58:37;;;;;;;;;;;-0.10;99.90;;;;;;5010759;28;20046;-81
2023/04/06 02:01:02;;;;;;;0.90;0.90;;;-0.80;99.90;;;;;;5018954;28;19967;-80
2023/04/06 02:03:28;;;;;;;;;;;0.10;99.90;;;;;;5029830;28;20041;-80
2023/04/06 02:05:54;;;;;;;0.82;0.82;;;0.00;99.90;;;;;;4997651;28;19917;-80
2023/04/06 02:08:20;;;;;;;;;;;-0.70;99.90;;;;;;5015187;28;20091;-81
2023/04/06 02:10:46;;;;;;;0.70;0.70;;;-0.90;99.90;;;;;;5016523;28;19973;-80
2023/04/06 02:13:12;;;;;;;0.80;0.80;;;-0.90;99.90;;;;;;4998112;28;20037;-81
2023/04/06 02:15:38;;;;;;;0.80;0.80;;;0.30;99.90;;;;;;5013801;28;20064;-80
2023/04/06 02:18:05;;;;;;;0.73;0.73;;;-0.10;99.90;;;;;;5020021;28;20033;-81
2023/04/06 02:20:31;;;;;;;0.70;0.70;;;-1.00;99.90;;;;;;5021033;28;20084;-80
2023/04/06 02:23:00;;;;;;;0.80;0.80;;;-0.30;99.90;;;;;;5011298;28;20100;-81
2023/04/06 02:25:26;;;;;;;0.85;0.85;;;-1.00;99.90;;;;;;4998086;28;20077;-80
2023/04/06 02:27:54;;;;;;;0.68;0.68;;;-1.00;99.90;;;;;;4994957;28;20041;-81
2023/04/06 02:30:19;;;;;;;0.80;0.80;;;-0.90;99.90;;;;;;5011286;28;20053;-80
2023/04/06 02:32:45;;;;;;;0.60;0.60;;;-1.00;99.90;;;;;;5011672;28;20068;-80
2023/04/06 02:35:11;;;;;;;0.70;0.70;;;-1.00;99.90;;;;;;5012232;28;20718;-80
2023/04/06 02:37:36;;;;;;;0.90;0.90;;;-1.00;99.90;;;;;;5015810;28;20076;-80
2023/04/06 02:40:03;;;;;;;0.90;0.90;;;-0.50;99.90;;;;;;5023244;28;20147;-81
2023/04/06 02:42:29;;;;;;;0.90;0.90;;;-1.10;99.90;;;;;;5010826;28;20049;-80
2023/04/06 02:44:55;;;;;;;0.80;0.80;;;-1.10;99.90;;;;;;5032239;28;20466;-81
2023/04/06 02:47:20;;;;;;;1.40;1.27;;;-0.70;99.90;;;;;;5014114;28;20041;-81
2023/04/06 02:49:46;;;;;;;;;;;-1.10;99.90;;;;;;5013181;28;20057;-81
2023/04/06 02:52:12;;;;;;;0.70;0.70;;;-0.90;99.90;;;;;;5013129;28;19990;-81
2023/04/06 02:54:39;;;;;;;0.80;0.80;;;-1.10;99.90;;;;;;5013753;28;20470;-80
2023/04/06 02:57:05;;;;;;;1.00;1.00;;;-1.10;99.90;;;;;;4998762;28;20128;-81
2023/04/06 02:59:31;;;;;;;0.75;0.75;;;-1.10;99.90;;;;;;4991369;28;20048;-81
2023/04/06 03:01:59;;;;;;;0.70;0.70;;;-1.10;99.90;;;;;;5009833;28;20034;-82
2023/04/06 03:04:25;;;;;;;0.90;0.90;;;-0.70;99.90;;;;;;5009229;28;20369;-82
2023/04/06 03:06:53;;;;;;;0.68;0.68;;;-1.20;99.90;;;;;;4995921;28;20041;-82
2023/04/06 03:09:19;;;;;;;0.80;0.80;;;-1.10;99.90;;;;;;5012091;28;20423;-82
2023/04/06 03:11:46;;;;;;;0.90;0.90;;;-0.20;99.90;;;;;;4996309;28;20113;-82
2023/04/06 03:14:12;;;;;;;0.70;0.70;;;-1.20;99.90;;;;;;5015182;28;20046;-82
2023/04/06 03:16:37;;;;;;;0.88;0.88;;;-1.20;99.90;;;;;;5014702;28;20047;-81
2023/04/06 03:19:03;;;;;;;;;;;-1.20;99.90;;;;;;5013576;28;20120;-82
2023/04/06 03:21:29;;;;;;;0.70;0.70;;;-1.20;99.90;;;;;;5012553;28;19916;-82
2023/04/06 03:23:54;;;;;;;;;;;-1.20;99.90;;;;;;4995604;28;20128;-82
2023/04/06 03:26:22;;;;;;;0.70;0.70;;;-1.10;99.90;;;;;;5012074;28;19921;-81
2023/04/06 03:28:47;;;;;;;0.90;0.90;;;-1.30;99.90;;;;;;4985630;28;20388;-82
2023/04/06 03:31:13;;;;;;;0.90;0.90;;;-0.60;99.90;;;;;;4994608;28;20042;-82
2023/04/06 03:33:40;;;;;;;;;;;-0.40;99.90;;;;;;4997164;28;20069;-81
2023/04/06 03:36:06;;;;;;;0.70;0.70;;;-1.30;99.90;;;;;;5009862;28;19925;-81
2023/04/06 03:38:32;;;;;;;0.80;0.80;;;-1.30;99.90;;;;;;5024921;28;20095;-81
2023/04/06 03:40:58;;;;;;;0.70;0.70;;;-1.30;99.90;;;;;;5031037;28;20050;-81
2023/04/06 03:43:23;;;;;;;;;;;-0.50;99.90;;;;;;4980096;28;20049;-81
2023/04/06 03:45:49;;;;;;;0.70;0.70;;;-0.40;99.90;;;;;;5029382;28;20322;-81
2023/04/06 03:48:15;;;;;;;0.70;0.70;;;-1.30;99.90;;;;;;4995503;28;20136;-82
2023/04/06 03:50:41;;;;;;;0.80;0.80;;;-1.30;99.90;;;;;;4998214;28;20045;-82
2023/04/06 03:53:06;;;;;;;0.98;0.98;;;-1.30;99.90;;;;;;5011467;28;20048;-82
2023/04/06 03:55:32;;;;;;;0.88;0.88;;;-1.40;99.90;;;;;;5017710;28;20045;-81
2023/04/06 03:57:58;;;;;;;0.85;0.85;;;-0.50;99.90;;;;;;5012114;28;20132;-82
2023/04/06 04:00:24;;;;;;;;;;;-1.40;99.90;;;;;;5013712;28;20048;-82
2023/04/06 04:02:49;;;;;;;0.90;0.90;;;-1.50;99.90;;;;;;5011957;28;19928;-82
2023/04/06 04:05:15;;;;;;;0.80;0.80;;;-1.30;99.90;;;;;;5013287;28;20049;-81
2023/04/06 04:07:41;;;;;;;0.73;0.73;;;-1.50;99.90;;;;;;5011567;28;20045;-82
2023/04/06 04:10:07;;;;;;;;;;;-0.60;99.90;;;;;;4995923;28;20132;-82
2023/04/06 04:12:32;;;;;;;0.95;0.95;;;-1.50;99.90;;;;;;4996829;28;19929;-83
2023/04/06 04:14:58;;;;;;;0.90;0.90;;;-1.40;99.90;;;;;;5009118;28;20058;-83
2023/04/06 04:17:24;;;;;;;0.85;0.85;;;-1.50;99.90;;;;;;5008452;28;20076;-82
2023/04/06 04:19:50;;;;;;;1.63;1.30;;;-1.20;99.90;;;;;;5008164;28;20042;-82
2023/04/06 04:22:16;;;;;;;0.90;0.90;;;-1.50;99.90;;;;;;5008976;28;20128;-83
2023/04/06 04:24:41;;;;;;;0.90;0.90;;;-1.50;99.90;;;;;;5009392;28;20046;-82
2023/04/06 04:27:07;;;;;;;0.98;0.98;;;-1.50;99.90;;;;;;5025846;28;20044;-82
2023/04/06 04:29:33;;;;;;;0.90;0.90;;;-1.50;99.90;;;;;;4992905;28;20066;-83
2023/04/06 04:31:58;;;;;;;0.90;0.90;;;-1.50;99.90;;;;;;5025262;28;20056;-82
2023/04/06 04:34:25;;;;;;;;;;;-1.00;99.90;;;;;;5008248;28;20141;-82
2023/04/06 04:36:52;;;;;;;0.80;0.80;;;-1.40;99.90;;;;;;5014603;28;19943;-82
2023/04/06 04:39:18;;;;;;;0.90;0.90;;;-1.60;99.90;;;;;;5011611;28;20115;-83
2023/04/06 04:41:44;;;;;;;0.93;0.93;;;-1.60;99.90;;;;;;5012294;28;20499;-82
2023/04/06 04:44:09;;;;;;;0.90;0.90;;;-1.60;99.90;;;;;;5012719;28;20046;-84
2023/04/06 04:46:35;;;;;;;;;;;-1.60;99.90;;;;;;5012755;28;20041;-81
2023/04/06 04:49:01;;;;;;;0.80;0.80;;;-1.10;99.90;;;;;;5012536;28;20331;-81
2023/04/06 04:51:27;;;;;;;;;;;-1.50;99.90;;;;;;5012291;28;20069;-83
2023/04/06 04:53:53;;;;;;;0.80;0.80;;;-1.50;99.90;;;;;;5012635;28;20010;-82
2023/04/06 04:56:19;;;;;;;0.80;0.80;;;-1.50;99.90;;;;;;5011719;28;20070;-82
2023/04/06 04:58:45;;;;;;;0.90;0.90;;;-1.50;99.90;;;;;;5011436;28;20046;-83
2023/04/06 05:01:10;;;;;;;;;;;-1.50;99.90;;;;;;4979917;28;20450;-83
2023/04/06 05:03:38;;;;;;;1.00;1.00;;;-1.50;99.90;;;;;;5015245;28;20326;-82
2023/04/06 05:06:05;;;;;;;0.90;0.90;;;-1.40;99.90;;;;;;5009284;28;20097;-84
2023/04/06 05:08:31;;;;;;;0.88;0.88;;;-1.30;99.90;;;;;;5017086;28;20041;-83
2023/04/06 05:10:56;;;;;;;;;;;-1.30;99.90;;;;;;4994791;28;20134;-83
2023/04/06 05:13:22;;;;;;;0.70;0.70;;;-1.30;99.90;;;;;;4997830;28;20012;-83
2023/04/06 05:15:49;;;;;;;0.80;0.80;;;-1.20;99.90;;;;;;5026286;28;20052;-82
2023/04/06 05:18:15;;;;;;;0.80;0.80;;;-1.20;99.90;;;;;;5033024;28;20117;-81
2023/04/06 05:20:42;;;;;;;;;;;-1.10;99.90;;;;;;5014570;28;20048;-84
2023/04/06 05:23:07;;;;;;;0.77;0.77;;;-0.30;99.90;;;;;;5030636;28;19916;-83
2023/04/06 05:25:33;;;;;;;0.90;0.90;;;-0.60;99.90;;;;;;5020708;28;20124;-82
2023/04/06 05:27:59;;;;;;;0.90;0.90;;;-0.70;99.90;;;;;;5006352;28;20046;-83
2023/04/06 05:30:25;;;;;;;0.80;0.80;;;-0.90;99.90;;;;;;5014876;28;20048;-82
2023/04/06 05:32:51;;;;;;;0.68;0.68;;;-0.80;99.90;;;;;;5015288;28;20056;-82
2023/04/06 05:35:17;;;;;;;0.90;0.90;;;0.10;99.90;;;;;;5014703;28;20201;-82
2023/04/06 05:37:43;;;;;;;0.80;0.80;;;-0.70;99.90;;;;;;4998249;28;20053;-83
2023/04/06 05:40:09;;;;;;;0.82;0.82;;;-0.50;99.90;;;;;;5014933;28;20046;-82
2023/04/06 05:42:43;;;;;;;0.70;0.70;;;-0.60;99.90;;;;;;4990740;28;20427;-82
2023/04/06 05:45:10;;;;;;;0.80;0.80;;;-0.50;99.90;;;;;;5015968;28;20123;-81
2023/04/06 05:47:37;;;;;;;0.60;0.60;;;-0.40;99.90;;;;;;5013947;28;20103;-84
2023/04/06 05:50:03;;;;;;;0.70;0.70;;;-0.20;99.90;;;;;;5016157;28;20387;-82
2023/04/06 05:52:29;;;;;;;0.80;0.80;;;-0.20;99.90;;;;;;5002467;28;20044;-81
2023/04/06 05:54:56;;;;;;;0.70;0.70;;;0.00;99.90;;;;;;4980159;28;20040;-82
2023/04/06 05:57:21;;;;;;;0.70;0.70;;;-0.10;99.90;;;;;;5012858;28;20044;-80
2023/04/06 05:59:47;;;;;;;0.70;0.70;;;0.80;99.90;;;;;;5009811;28;20041;-82
2023/04/06 06:02:13;;;;;;;0.60;0.60;;;0.20;99.90;;;;;;5015671;28;20037;-82
2023/04/06 06:04:39;;;;;;;0.77;0.77;;;0.20;99.90;;;;;;4992336;28;20046;-82
2023/04/06 06:07:05;;;;;;;0.88;0.88;;;0.30;99.90;;;;;;5005123;28;20125;-82
2023/04/06 06:09:32;;;;;;;0.80;0.80;;;0.40;99.90;;;;;;5010360;28;20048;-82
2023/04/06 06:11:59;;;;;;;0.70;0.70;;;0.50;99.90;;;;;;5008073;28;20057;-81
2023/04/06 06:14:28;;;;;;;0.73;0.73;;;0.50;99.90;;;;;;5022497;28;20045;-85
2023/04/06 06:16:54;;;;;;;0.80;0.80;;;0.60;99.90;;;;;;5012251;28;20037;-80
2023/04/06 06:19:21;;;;;;;;;;;0.70;99.90;;;;;;4995454;28;20041;-81
2023/04/06 06:21:46;;;;;;;0.88;0.88;;;0.90;99.90;;;;;;5014974;28;20444;-84
2023/04/06 06:24:13;;;;;;;0.75;0.75;;;1.00;99.90;;;;;;4994075;28;20120;-81
2023/04/06 06:26:39;;;;;;;0.80;0.80;;;1.10;99.90;;;;;;5029299;28;20053;-82
2023/04/06 06:29:07;;;;;;;0.70;0.70;;;1.20;99.90;;;;;;5022132;28;20106;-79
2023/04/06 06:31:35;;;;;;;0.70;0.70;;;1.30;99.90;;;;;;5021864;28;20045;-83
2023/04/06 06:34:01;;;;;;;0.88;0.88;;;1.40;99.90;;;;;;5000161;28;20117;-79
2023/04/06 06:36:27;;;;;;;0.80;0.80;;;1.50;99.90;;;;;;5018829;28;20045;-85
2023/04/06 06:38:53;;;;;;;0.73;0.73;;;1.70;99.90;;;;;;5019132;28;20040;-82
2023/04/06 06:41:19;;;;;;;0.82;0.82;;;1.80;99.90;;;;;;5011879;28;20406;-82
2023/04/06 06:43:45;;;;;;;0.80;0.80;;;2.00;99.90;;;;;;5009542;28;20264;-83
2023/04/06 06:46:10;;;;;;;0.80;0.80;;;2.10;99.90;;;;;;5026453;28;20522;-84
2023/04/06 06:48:36;;;;;;;0.80;0.80;;;2.20;99.90;;;;;;4993683;28;20045;-84
2023/04/06 06:51:02;;;;;;;0.65;0.65;;;2.30;99.90;;;;;;5011286;28;20053;-85
2023/04/06 06:53:28;;;;;;;0.80;0.80;;;2.40;99.90;;;;;;4978145;28;20037;-84
2023/04/06 06:55:54;;;;;;;0.60;0.60;;;2.50;99.90;;;;;;4993377;28;20054;-84
2023/04/06 06:58:20;;;;;;;0.70;0.70;;;2.60;99.90;;;;;;5010063;28;20049;-83
2023/04/06 07:00:46;;;;;;;0.80;0.80;;;2.70;99.90;;;;;;5000060;28;20080;-83
2023/04/06 07:03:12;;;;;;;0.70;0.70;;;2.80;99.90;;;;;;5021290;28;20125;-85
2023/04/06 07:05:37;;;;;;;0.60;0.60;;;2.90;99.90;;;;;;5017804;28;20048;-84
2023/04/06 07:08:03;;;;;;;0.60;0.60;;;3.00;99.90;;;;;;5008142;28;20045;-85
2023/04/06 07:10:29;;;;;;;0.75;0.75;;;3.10;99.90;;;;;;5023595;28;20131;-84
2023/04/06 07:12:55;;;;;;;0.60;0.60;;;3.20;99.90;;;;;;5014450;28;20081;-84
2023/04/06 07:15:21;;;;;;;;;;;3.40;99.90;;;;;;5022279;28;20045;-84
2023/04/06 07:17:47;;;;;;;0.80;0.80;;;3.50;99.90;;;;;;5009197;28;20003;-85
2023/04/06 07:20:13;;;;;;;0.70;0.70;;;3.60;99.90;;;;;;5018415;28;20749;-84
2023/04/06 07:22:44;;;;;;;0.88;0.88;;;3.70;99.90;;;;;;5030160;28;20037;-84
2023/04/06 07:25:10;;;;;;;0.57;0.57;;;3.80;99.90;;;;;;5019157;28;20045;-83
2023/04/06 07:27:35;;;;;;;0.70;0.70;;;3.90;99.90;;;;;;4998000;28;20053;-84
2023/04/06 07:30:01;;;;;;;0.80;0.80;;;4.00;99.90;;;;;;4985137;28;20399;-84
2023/04/06 07:32:27;;;;;;;0.50;0.50;;;4.10;99.90;;;;;;5013748;28;20399;-84
2023/04/06 07:34:53;;;;;;;0.60;0.60;;;4.20;99.90;;;;;;5011857;28;20053;-83
2023/04/06 07:37:19;;;;;;;0.70;0.70;;;4.30;99.90;;;;;;5009995;28;20434;-84
2023/04/06 07:39:45;;;;;;;0.80;0.80;;;4.50;99.90;;;;;;4995459;28;20092;-85
2023/04/06 07:42:10;;;;;;;;;;;4.60;99.90;;;;;;4979110;28;20069;-84
2023/04/06 07:44:36;;;;;;;0.70;0.70;;;4.80;99.90;;;;;;5002030;28;20022;-84
2023/04/06 07:47:02;;;;;;;1.05;1.00;;;4.90;99.90;;;;;;4992184;28;20039;-84
2023/04/06 07:49:32;;;;;;;1.00;0.90;;;5.00;99.90;;;;;;5007695;28;20573;-83
2023/04/06 07:51:57;;;;;;;0.65;0.65;;;5.20;99.90;;;;;;5005836;28;20152;-85
2023/04/06 07:54:23;;;;;;;0.80;0.80;;;5.20;99.90;;;;;;4993389;28;20117;-83
2023/04/06 07:56:49;;;;;;;0.85;0.85;;;5.30;99.90;;;;;;5009029;28;20497;-85
2023/04/06 07:59:15;;;;;;;0.77;0.77;;;5.40;99.90;;;;;;5009678;28;20041;-84
2023/04/06 08:01:40;;;;;;;0.70;0.70;;;5.60;99.90;;;;;;5008700;28;20457;-84
2023/04/06 08:04:06;;;;;;;0.70;0.70;;;5.70;99.90;;;;;;4991189;28;20045;-85
2023/04/06 08:06:32;;;;;;;0.70;0.70;;;5.90;99.90;;;;;;5010979;28;20121;-85
2023/04/06 08:08:57;;;;;;;0.60;0.60;;;6.00;99.90;;;;;;5009109;28;20057;-85
2023/04/06 08:11:23;;;;;;;0.70;0.70;;;6.10;99.90;;;;;;5026754;28;20049;-85
2023/04/06 08:13:49;;;;;;;1.05;1.05;;;6.20;99.90;;;;;;5012663;28;20142;-85
2023/04/06 08:16:15;;;;;;;0.60;0.60;;;6.40;99.90;;;;;;4997082;28;20514;-84
2023/04/06 08:18:41;;;;;;;0.60;0.60;;;6.70;99.90;;;;;;4997579;28;20072;-85
2023/04/06 08:21:06;;;;;;;0.75;0.75;;;6.70;99.90;;;;;;5027963;28;20168;-84
2023/04/06 08:23:32;;;;;;;0.60;0.60;;;6.80;99.90;;;;;;5012175;28;20037;-83
2023/04/06 08:25:58;;;;;;;0.80;0.80;;;6.90;99.90;;;;;;5016125;28;20053;-84
2023/04/06 08:28:23;;;;;;;0.50;0.50;;;7.00;99.90;;;;;;5013361;28;20105;-84
2023/04/06 08:30:49;;;;;;;2.53;1.90;;;7.10;99.90;;;;;;5016882;28;20045;-85
2023/04/06 08:33:15;;;;;;;0.82;0.82;;;7.20;99.90;;;;;;5013750;28;20045;-85
2023/04/06 08:35:41;;;;;;;0.40;0.40;;;7.30;99.90;;;;;;4994320;28;20085;-85
2023/04/06 08:38:07;;;;;;;0.82;0.82;;;7.40;99.90;;;;;;5012646;28;20033;-84
2023/04/06 08:40:36;;;;;;;;;;;7.40;99.90;;;;;;5010949;28;20080;-84
2023/04/06 08:43:08;;;;;;;0.50;0.50;;;7.60;99.90;;;;;;5004185;28;20012;-84
2023/04/06 08:45:34;;;;;;;0.40;0.40;;;7.70;99.90;;;;;;5010869;28;20075;-85
2023/04/06 08:48:02;;;;;;;0.60;0.60;;;7.80;99.90;;;;;;4995663;28;20046;-83
2023/04/06 08:50:30;;;;;;;0.68;0.68;;;7.90;99.90;;;;;;5031257;28;20103;-84
2023/04/06 08:52:56;;;;;;;0.70;0.70;;;8.00;99.90;;;;;;5018345;28;20294;-85
2023/04/06 08:55:22;;;;;;;0.95;0.45;;;8.10;99.90;;;;;;5013056;28;20041;-84
2023/04/06 08:57:48;;;;;;;2.47;1.10;;;8.30;99.90;;;;;;5007055;28;20048;-85
2023/04/06 09:00:15;;;;;;;;;;;8.40;99.90;;;;;;5011503;28;20049;-84
2023/04/06 09:02:45;;;;;;;0.40;0.40;;;8.50;99.90;;;;;;4996388;28;19921;-85
2023/04/06 09:05:11;;;;;;;1.13;1.02;;;8.70;99.90;;;;;;5013766;28;20142;-85
2023/04/06 09:07:37;;;;;;;0.85;0.80;;;8.90;99.90;;;;;;5023141;28;20376;-85
2023/04/06 09:10:05;;;;;;;0.60;0.60;;;9.10;99.90;;;;;;5012621;28;20739;-85
2023/04/06 09:12:31;;;;;;;0.68;0.68;;;9.30;99.90;;;;;;5000013;28;20053;-84
2023/04/06 09:14:58;;;;;;;;;;;9.40;99.90;;;;;;5007704;28;20495;-85
2023/04/06 09:17:29;;;;;;;0.50;0.50;;;9.60;99.40;;;;;;5005583;28;19925;-85
2023/04/06 09:19:55;;;;;;;0.40;0.40;;;9.70;99.90;;;;;;5004044;28;20098;-84
2023/04/06 09:22:21;;;;;;;2.47;2.38;;;9.80;99.90;;;;;;5010315;28;20216;-84
2023/04/06 09:24:53;;;;;;;19.85;1.13;;;9.90;99.20;;;;;;5009285;28;20454;-84
2023/04/06 09:27:34;;;;;;;1.55;1.40;;;10.00;97.80;;;;;;5001985;28;20388;-84
2023/04/06 09:30:18;;;;;;;0.70;0.70;;;10.30;98.80;;;;;;5006871;28;20423;-85
2023/04/06 09:32:45;;;;;;;0.40;0.40;;;10.50;95.80;;;;;;4989812;28;20173;-85
2023/04/06 09:35:17;;;;;;;0.93;0.93;;;10.70;95.80;;;;;;5008527;28;20052;-85
2023/04/06 09:37:43;;;;;;;1.00;1.00;;;10.90;94.50;;;;;;4993537;28;20080;-85
2023/04/06 09:40:13;;;;;;;1.10;1.05;;;11.10;95.60;;;;;;5010080;28;20475;-84
2023/04/06 09:42:41;;;;;;;0.70;0.70;;;11.30;94.00;;;;;;4974427;28;20384;-84
2023/04/06 09:45:07;;;;;;;2.67;2.47;;;11.30;91.30;;;;;;5006162;28;20049;-85
2023/04/06 09:47:36;;;;;;;3.05;1.52;;;11.20;90.00;;;;;;5002277;28;20052;-84
2023/04/06 09:50:03;;;;;;;1.92;1.58;;;11.20;94.40;;;;;;5023612;28;20049;-84
2023/04/06 09:52:49;;;;;;;0.85;0.85;;;11.30;93.00;;;;;;5006194;28;20049;-83
2023/04/06 09:55:35;;;;;;;1.88;1.77;;;11.40;96.20;;;;;;5004944;28;20046;-85
2023/04/06 09:58:06;;;;;;;1.38;1.27;;;11.50;95.60;;;;;;5007163;28;20096;-85
2023/04/06 10:00:40;;;;;;;0.60;0.60;;;11.60;92.00;;;;;;4971822;28;20117;-84
2023/04/06 10:03:22;;;;;;;0.93;0.93;;;11.60;90.90;;;;;;5005840;28;20152;-84
2023/04/06 10:05:54;;;;;;;2.75;1.90;;;11.60;90.60;;;;;;5003111;28;20128;-84
2023/04/06 10:08:23;;;;;;;1.98;1.00;;;11.60;89.70;;;;;;5003039;28;20045;-85
2023/04/06 10:10:51;;;;;;;0.47;0.47;;;11.60;91.80;;;;;;5020700;28;20119;-84
2023/04/06 10:13:18;;;;;;;1.90;1.80;;;11.50;90.30;;;;;;4999462;28;20057;-84
2023/04/06 10:15:44;;;;;;;0.70;0.70;;;11.50;89.40;;;;;;5010887;28;20045;-84
2023/04/06 10:18:10;;;;;;;0.73;0.73;;;11.60;91.80;;;;;;5000127;28;20046;-85
2023/04/06 10:20:51;;;;;;;0.90;0.88;;;11.70;92.40;;;;;;4997431;28;20092;-84
2023/04/06 10:23:30;;;;;;;0.50;0.50;;;11.80;92.80;;;;;;4996956;28;20050;-84
2023/04/06 10:25:58;;;;;;;0.68;0.60;;;11.90;90.50;;;;;;5014356;28;20584;-83
2023/04/06 10:28:25;;;;;;;0.70;0.70;;;11.90;90.30;;;;;;5023207;28;20051;-87
2023/04/06 10:30:58;;;;;;;0.75;0.75;;;12.00;91.20;;;;;;4991562;28;20505;-85
2023/04/06 10:33:24;;;;;;;1.20;1.10;;;12.00;90.20;;;;;;5005287;28;20055;-85
2023/04/06 10:35:50;;;;;;;0.88;0.88;;;12.20;91.40;;;;;;5007981;28;20106;-83
2023/04/06 10:38:20;;;;;;;0.52;0.52;;;12.30;90.60;;;;;;5011143;28;20092;-85
2023/04/06 10:40:47;;;;;;;0.47;0.47;;;12.50;93.70;;;;;;5009215;28;20045;-85
2023/04/06 10:43:18;;;;;;;1.58;0.75;;;12.70;92.60;;;;;;5006885;28;20077;-85
2023/04/06 10:45:44;;;;;;;0.73;0.73;;;12.90;92.60;;;;;;4990637;28;20037;-86
2023/04/06 10:48:15;;;;;;;1.55;0.80;;;12.90;87.70;;;;;;5005326;28;20055;-85
2023/04/06 10:50:43;;;;;;;2.13;1.95;;;13.00;90.20;;;;;;5004886;28;20053;-85
2023/04/06 10:53:09;;;;;;;2.17;1.48;;;13.10;94.90;;;;;;5006154;28;20053;-86
2023/04/06 10:55:38;;;;;;;;;;;13.10;89.40;;;;;;5004085;28;20045;-84
2023/04/06 10:58:07;;;;;;;0.77;0.77;;;13.10;86.10;;;;;;5017643;28;19925;-85
2023/04/06 11:00:32;;;;;;;0.85;0.50;;;13.10;87.30;;;;;;4989231;28;20171;-84
2023/04/06 11:03:01;;;;;;;0.52;0.52;;;13.10;83.50;;;;;;5004343;28;20132;-83
2023/04/06 11:05:27;;;;;;;1.33;0.82;;;13.00;87.10;;;;;;4991275;28;20037;-83
2023/04/06 11:07:53;;;;;;;0.88;0.82;;;13.00;81.90;;;;;;5007013;28;20483;-84
2023/04/06 11:10:23;;;;;;;0.60;0.60;;;13.00;85.80;;;;;;5025810;28;20049;-84
2023/04/06 11:12:54;;;;;;;1.75;1.60;;;13.00;89.20;;;;;;5008027;28;20057;-84
2023/04/06 11:15:26;;;;;;;1.30;1.20;;;12.90;89.40;;;;;;5016295;28;20057;-85
2023/04/06 11:17:51;;;;;;;0.50;0.50;;;12.90;82.10;;;;;;5007246;28;20046;-84
2023/04/06 11:20:19;;;;;;;;;;;13.00;81.30;;;;;;5005226;28;21556;-84
2023/04/06 11:22:51;;;;;;;1.17;0.55;;;13.10;88.90;;;;;;5003234;28;20370;-84
2023/04/06 11:25:18;;;;;;;3.58;2.28;;;13.30;91.50;;;;;;4991462;28;20064;-85
2023/04/06 11:27:46;;;;;;;2.33;2.13;;;13.50;91.10;;;;;;4992061;28;20041;-84
2023/04/06 11:30:12;;;;;;;3.80;3.08;;;13.50;86.00;;;;;;5003269;28;20517;-85
2023/04/06 11:32:43;;;;;;;1.30;0.90;;;13.60;76.70;;;;;;5006317;28;20038;-85
2023/04/06 11:35:27;;;;;;;1.80;1.70;;;13.60;80.90;;;;;;5006636;28;20046;-84
2023/04/06 11:37:52;;;;;;;4.07;2.60;;;13.50;81.70;;;;;;5022494;28;20045;-86
2023/04/06 11:40:23;;;;;;;2.50;2.13;;;13.50;82.60;;;;;;5002438;28;20030;-86
2023/04/06 11:42:55;;;;;;;2.67;1.42;;;13.50;84.10;;;;;;5007054;28;20049;-84
2023/04/06 11:45:22;;;;;;;1.77;1.67;;;13.50;82.60;;;;;;5002144;28;20042;-86
2023/04/06 11:47:59;;;;;;;3.03;2.03;;;13.70;82.40;;;;;;4990110;28;20052;-85
2023/04/06 11:50:25;;;;;;;4.03;3.58;;;13.80;75.30;;;;;;5012097;28;20038;-86
2023/04/06 11:53:01;;;;;;;2.58;1.23;;;14.00;74.90;;;;;;5009334;28;20521;-84
2023/04/06 11:55:27;;;;;;;3.95;3.08;;;14.20;79.80;;;;;;5020416;28;20380;-85
2023/04/06 11:57:53;;;;;;;3.63;1.98;;;14.50;78.70;;;;;;5009465;28;20042;-84
2023/04/06 12:00:20;;;;;;;3.20;2.90;;;14.60;76.80;;;;;;5003731;28;20034;-84
2023/04/06 12:02:47;;;;;;;1.60;1.50;;;14.60;75.90;;;;;;4988650;28;20570;-85
2023/04/06 12:05:12;;;;;;;2.72;2.13;;;14.50;78.10;;;;;;5006586;28;20515;-85
2023/04/06 12:07:38;;;;;;;3.90;3.60;;;14.40;78.60;;;;;;5003706;28;20049;-84
2023/04/06 12:10:04;;;;;;;;;;;14.40;76.00;;;;;;4988469;28;20057;-83
2023/04/06 12:12:30;;;;;;;3.78;2.22;;;14.20;75.30;;;;;;5006690;28;19964;-85
2023/04/06 12:14:56;;;;;;;;;;;14.20;77.30;;;;;;5001935;28;20515;-84
2023/04/06 12:17:23;;;;;;;2.13;2.03;;;14.10;73.20;;;;;;4989276;28;19976;-83
2023/04/06 12:19:49;;;;;;;2.78;2.53;;;14.00;74.90;;;;;;4983986;28;20053;-84
2023/04/06 12:22:15;;;;;;;1.75;1.65;;;14.10;75.20;;;;;;4979553;28;20042;-84
2023/04/06 12:24:41;;;;;;;;;;;14.30;75.50;;;;;;4985091;28;20050;-85
2023/04/06 12:27:06;;;;;;;1.63;1.52;;;14.20;72.30;;;;;;4985856;28;19926;-85
2023/04/06 12:29:32;;;;;;;3.60;2.42;;;14.10;72.60;;;;;;4982563;28;20153;-84
2023/04/06 12:32:01;;;;;;;1.95;1.52;;;14.00;76.20;;;;;;4967150;28;20073;-86
2023/04/06 12:34:27;;;;;;;1.88;1.67;;;14.00;75.60;;;;;;4981550;28;20042;-84
2023/04/06 12:36:52;;;;;;;1.95;1.83;;;14.00;74.00;;;;;;4978199;28;20135;-85
2023/04/06 12:39:20;;;;;;;1.98;1.80;;;14.00;74.80;;;;;;4960232;28;20039;-84
2023/04/06 12:41:45;;;;;;;1.67;1.58;;;14.10;75.40;;;;;;4963616;28;20129;-84
2023/04/06 12:44:11;;;;;;;1.27;0.95;;;14.00;75.10;;;;;;4999885;28;20046;-85
2023/04/06 12:46:38;;;;;;;0.95;0.93;;;13.90;75.60;;;;;;4998588;28;20412;-84
2023/04/06 12:49:04;;;;;;;1.98;1.77;;;13.80;70.30;;;;;;4991458;28;20088;-83
2023/04/06 12:51:31;;;;;;;;;;;13.70;69.50;;;;;;4991996;28;20396;-84
2023/04/06 12:53:57;;;;;;;2.67;2.27;;;13.70;72.40;;;;;;5022931;28;19937;-85
2023/04/06 12:56:23;;;;;;;2.17;1.83;;;13.60;70.80;;;;;;4988680;28;20413;-85
2023/04/06 12:58:51;;;;;;;2.65;2.45;;;13.60;70.20;;;;;;4987114;28;20038;-84